Time;durP1;ratioP1;P1;durP2;ratioP2;P2;SDS_P1;SDS_P2;PMS_P1;PMS_P2;Temp;Humidity;BMP_temperature;BMP_pressure;BME280_temperature;BME280_humidity;BME280_pressure;Samples;Min_cycle;Max_cycle;Signal;HPM_P1;HPM_P2
2022/05/15 00:01:40;;;;;;;;;;;;;;;22.00;45.25;101895.94;5072571;28;19973;-78
2022/05/15 00:04:07;;;;;;;;;;;;;;;21.99;45.30;101894.25;5073363;28;20436;-78
2022/05/15 00:06:33;;;;;;;;;;;;;;;22.00;45.30;101896.75;5073345;28;20003;-78
2022/05/15 00:08:58;;;;;;;;;;;;;;;21.99;45.42;101888.75;5072329;28;19977;-78
2022/05/15 00:11:24;;;;;;;;;;;;;;;21.98;45.55;101885.19;5072322;28;20046;-78
2022/05/15 00:13:50;;;;;;;;;;;;;;;21.98;45.25;101884.38;5073495;28;19927;-78
2022/05/15 00:16:16;;;;;;;;;;;;;;;21.96;45.26;101879.16;5072948;28;19976;-78
2022/05/15 00:18:43;;;;;;;;;;;;;;;21.97;45.53;101882.72;5075623;28;19950;-78
2022/05/15 00:21:08;;;;;;;;;;;;;;;21.97;45.42;101878.06;5077109;28;19951;-78
2022/05/15 00:23:33;;;;;;;;;;;;;;;21.95;45.27;101880.28;5075435;28;20037;-78
2022/05/15 00:25:59;;;;;;;;;;;;;;;21.96;45.37;101878.34;5075848;28;19921;-78
2022/05/15 00:28:24;;;;;;;;;;;;;;;21.95;45.17;101876.72;5058704;28;20380;-78
2022/05/15 00:30:50;;;;;;;;;;;;;;;21.94;45.16;101877.81;5075265;28;19945;-77
2022/05/15 00:33:16;;;;;;;;;;;;;;;21.95;45.18;101873.97;5076550;28;19929;-78
2022/05/15 00:35:41;;;;;;;;;;;;;;;21.93;45.17;101868.75;5076563;28;19953;-78
2022/05/15 00:38:07;;;;;;;;;;;;;;;21.93;45.46;101868.75;5058487;28;19931;-78
2022/05/15 00:40:34;;;;;;;;;;;;;;;21.93;45.23;101870.69;5076074;28;20457;-77
2022/05/15 00:42:59;;;;;;;;;;;;;;;21.93;45.46;101870.69;5076512;28;20019;-77
2022/05/15 00:45:25;;;;;;;;;;;;;;;21.91;45.28;101862.72;5076830;28;19970;-78
2022/05/15 00:47:50;;;;;;;;;;;;;;;21.92;45.52;101871.78;5076152;28;20293;-78
2022/05/15 00:50:22;;;;;;;;;;;;;;;21.92;45.07;101864.34;5076581;28;19927;-77
2022/05/15 00:52:48;;;;;;;;;;;;;;;21.91;45.14;101867.41;5076270;28;19980;-78
2022/05/15 00:55:30;;;;;;;;;;;;;;;21.91;45.12;101861.91;5074880;28;19920;-77
2022/05/15 00:57:58;;;;;;;;;;;;;;;21.90;45.50;101869.34;5076906;28;20344;-77
2022/05/15 01:00:26;;;;;;;;;;;;;;;21.89;45.38;101875.94;5077325;28;19940;-78
2022/05/15 01:02:55;;;;;;;;;;;;;;;21.89;45.15;101864.94;5074791;28;19941;-78
2022/05/15 01:05:20;;;;;;;;;;;;;;;21.89;45.10;101872.38;5074620;28;20415;-78
2022/05/15 01:07:46;;;;;;;;;;;;;;;21.89;45.37;101869.63;5074682;28;19998;-78
2022/05/15 01:10:12;;;;;;;;;;;;;;;21.88;45.17;101871.56;5075744;28;20241;-78
2022/05/15 01:12:40;;;;;;;;;;;;;;;21.88;45.21;101874.31;5074557;28;19943;-78
2022/05/15 01:15:06;;;;;;;;;;;;;;;21.87;45.04;101867.16;5074648;28;19931;-78
2022/05/15 01:17:31;;;;;;;;;;;;;;;21.87;45.11;101871.84;5057601;28;20026;-77
2022/05/15 01:20:00;;;;;;;;;;;;;;;21.87;45.06;101872.66;5057875;28;20286;-78
2022/05/15 01:22:25;;;;;;;;;;;;;;;21.86;45.24;101868.28;5074285;28;20405;-78
2022/05/15 01:24:50;;;;;;;;;;;;;;;21.87;45.16;101872.66;5074308;28;19927;-77
2022/05/15 01:27:16;;;;;;;;;;;;;;;21.86;45.00;101864.72;5057095;28;19921;-78
2022/05/15 01:29:43;;;;;;;;;;;;;;;21.85;45.11;101876.81;5075451;28;19954;-78
2022/05/15 01:32:09;;;;;;;;;;;;;;;21.84;45.36;101873.25;5075279;28;20470;-78
2022/05/15 01:34:34;;;;;;;;;;;;;;;21.85;45.12;101882.31;5074208;28;19971;-78
2022/05/15 01:36:59;;;;;;;;;;;;;;;21.85;45.15;101874.06;5075502;28;19960;-78
2022/05/15 01:39:26;;;;;;;;;;;;;;;21.85;45.17;101880.41;5074989;28;19934;-78
2022/05/15 01:41:51;;;;;;;;;;;;;;;21.84;45.07;101873.25;5073563;28;19927;-78
2022/05/15 01:44:16;;;;;;;;;;;;;;;21.84;45.14;101873.25;5075802;28;19924;-78
2022/05/15 01:46:42;;;;;;;;;;;;;;;21.83;45.08;101868.88;5075015;28;20233;-78
2022/05/15 01:49:07;;;;;;;;;;;;;;;21.84;45.02;101873.25;5075489;28;19934;-78
2022/05/15 01:51:34;;;;;;;;;;;;;;;21.82;45.07;101867.22;5073751;28;20015;-78
2022/05/15 01:53:59;;;;;;;;;;;;;;;21.82;45.15;101872.72;5074867;28;20360;-78
2022/05/15 01:56:25;;;;;;;;;;;;;;;21.82;45.34;101864.47;5073667;28;19931;-77
2022/05/15 01:58:50;;;;;;;;;;;;;;;21.82;45.12;101856.22;5073932;28;19993;-78
2022/05/15 02:01:15;;;;;;;;;;;;;;;21.81;45.26;101862.81;5073911;28;20457;-77
2022/05/15 02:03:41;;;;;;;;;;;;;;;21.80;45.40;101851.00;5073384;28;20010;-83
2022/05/15 02:06:06;;;;;;;;;;;;;;;21.81;45.27;101854.59;5073696;28;19952;-82
2022/05/15 02:08:32;;;;;;;;;;;;;;;21.79;45.05;101852.09;5056914;28;19927;-82
2022/05/15 02:10:58;;;;;;;;;;;;;;;21.79;45.35;101860.34;5074286;28;20369;-83
2022/05/15 02:13:23;;;;;;;;;;;;;;;21.80;45.09;101864.78;5073267;28;19963;-82
2022/05/15 02:15:48;;;;;;;;;;;;;;;21.78;45.11;101855.97;5073044;28;19921;-82
2022/05/15 02:18:14;;;;;;;;;;;;;;;21.79;45.02;101857.59;5056801;28;20383;-82
2022/05/15 02:20:39;;;;;;;;;;;;;;;21.79;44.93;101859.53;5072823;28;20299;-82
2022/05/15 02:23:04;;;;;;;;;;;;;;;21.78;44.98;101853.22;5073302;28;19977;-79
2022/05/15 02:25:31;;;;;;;;;;;;;;;21.78;45.11;101855.16;5073099;28;19920;-80
2022/05/15 02:27:57;;;;;;;;;;;;;;;21.77;45.33;101848.84;5074293;28;19934;-80
2022/05/15 02:30:23;;;;;;;;;;;;;;;21.77;45.17;101846.09;5074346;28;19917;-79
2022/05/15 02:32:49;;;;;;;;;;;;;;;21.77;45.00;101840.59;5074268;28;19939;-80
2022/05/15 02:35:15;;;;;;;;;;;;;;;21.77;45.31;101834.25;5074186;28;19916;-80
2022/05/15 02:37:44;;;;;;;;;;;;;;;21.76;45.33;101832.63;5072854;28;19956;-79
2022/05/15 02:40:10;;;;;;;;;;;;;;;21.76;45.24;101838.94;5073392;28;19917;-79
2022/05/15 02:42:36;;;;;;;;;;;;;;;21.75;45.39;101842.81;5073560;28;19921;-79
2022/05/15 02:45:01;;;;;;;;;;;;;;;21.75;45.12;101837.31;5056395;28;20268;-80
2022/05/15 02:47:26;;;;;;;;;;;;;;;21.75;45.38;101842.00;5073422;28;19931;-80
2022/05/15 02:52:35;;;;;;;;;;;;;;;21.74;45.13;101837.59;5074635;28;19962;-82
2022/05/15 02:55:01;;;;;;;;;;;;;;;21.74;45.11;101840.34;5072634;28;19924;-82
2022/05/15 02:57:26;;;;;;;;;;;;;;;21.74;45.30;101843.91;5073936;28;20393;-81
2022/05/15 02:59:51;;;;;;;;;;;;;;;21.74;45.25;101843.09;5074179;28;20303;-81
2022/05/15 03:02:17;;;;;;;;;;;;;;;21.73;45.02;101836.78;5055755;28;20015;-83
2022/05/15 03:04:42;;;;;;;;;;;;;;;21.72;45.43;101840.66;5072605;28;19959;-82
2022/05/15 03:07:07;;;;;;;;;;;;;;;21.72;45.04;101832.41;5072490;28;20035;-82
2022/05/15 03:09:33;;;;;;;;;;;;;;;21.72;44.99;101837.06;5072737;28;19920;-82
2022/05/15 03:11:59;;;;;;;;;;;;;;;21.71;45.29;101830.75;5073405;28;20280;-82
2022/05/15 03:14:24;;;;;;;;;;;;;;;21.72;45.20;101834.31;5074105;28;19934;-82
2022/05/15 03:16:50;;;;;;;;;;;;;;;21.72;44.96;101839.81;5072765;28;19986;-82
2022/05/15 03:19:15;;;;;;;;;;;;;;;21.72;45.08;101839.81;5073728;28;20421;-82
2022/05/15 03:21:40;;;;;;;;;;;;;;;21.71;44.99;101829.94;5055344;28;19951;-82
2022/05/15 03:24:07;;;;;;;;;;;;;;;21.70;44.94;101831.88;5072115;28;19920;-82
2022/05/15 03:26:35;;;;;;;;;;;;;;;21.70;45.18;101818.13;5072499;28;19951;-82
2022/05/15 03:29:00;;;;;;;;;;;;;;;21.69;44.94;101816.47;5073189;28;19916;-82
2022/05/15 03:31:26;;;;;;;;;;;;;;;21.69;45.25;101824.72;5072054;28;19945;-82
2022/05/15 03:33:51;;;;;;;;;;;;;;;21.69;45.06;101821.97;5072427;28;19942;-82
2022/05/15 03:36:16;;;;;;;;;;;;;;;21.69;45.13;101821.97;5073846;28;19946;-82
2022/05/15 03:38:42;;;;;;;;;;;;;;;21.68;44.96;101822.28;5073304;28;20415;-82
2022/05/15 03:41:08;;;;;;;;;;;;;;;21.68;44.92;101817.59;5073462;28;19920;-82
2022/05/15 03:43:34;;;;;;;;;;;;;;;21.68;44.90;101820.34;5071822;28;20438;-82
2022/05/15 03:46:00;;;;;;;;;;;;;;;21.68;44.88;101820.34;5073554;28;20345;-82
2022/05/15 03:48:25;;;;;;;;;;;;;;;21.68;44.89;101816.78;5072355;28;20376;-82
2022/05/15 03:50:50;;;;;;;;;;;;;;;21.67;45.07;101813.22;5057429;28;19939;-82
2022/05/15 03:53:15;;;;;;;;;;;;;;;21.66;44.97;101819.81;5076145;28;19931;-82
2022/05/15 03:55:41;;;;;;;;;;;;;;;21.67;44.96;101821.47;5075925;28;19947;-82
2022/05/15 03:58:06;;;;;;;;;;;;;;;21.67;45.01;101817.88;5077123;28;19917;-83
2022/05/15 04:00:31;;;;;;;;;;;;;;;21.66;45.27;101828.06;5075849;28;20429;-82
2022/05/15 04:02:56;;;;;;;;;;;;;;;21.66;44.95;101830.00;5075767;28;20053;-82
2022/05/15 04:05:22;;;;;;;;;;;;;;;21.64;44.87;101827.53;5075701;28;19917;-82
2022/05/15 04:07:48;;;;;;;;;;;;;;;21.65;44.97;101829.19;5075806;28;20007;-83
2022/05/15 04:10:15;;;;;;;;;;;;;;;21.65;44.87;101831.13;5075416;28;19950;-82
2022/05/15 04:12:41;;;;;;;;;;;;;;;21.64;44.92;101827.53;5076915;28;19927;-82
2022/05/15 04:15:06;;;;;;;;;;;;;;;21.64;44.97;101830.28;5076777;28;20378;-83
2022/05/15 04:17:32;;;;;;;;;;;;;;;21.63;44.93;101820.41;5077037;28;19917;-82
2022/05/15 04:20:00;;;;;;;;;;;;;;;21.64;44.94;101826.72;5077103;28;19986;-82
2022/05/15 04:22:25;;;;;;;;;;;;;;;21.63;44.88;101825.09;5075257;28;20404;-82
2022/05/15 04:24:51;;;;;;;;;;;;;;;21.63;45.06;101825.09;5076701;28;19921;-82
2022/05/15 04:27:16;;;;;;;;;;;;;;;21.62;44.92;101821.53;5075441;28;19928;-82
2022/05/15 04:29:41;;;;;;;;;;;;;;;21.62;45.14;101824.28;5075328;28;19916;-82
2022/05/15 04:32:06;;;;;;;;;;;;;;;21.62;44.91;101821.53;5059021;28;19927;-83
2022/05/15 04:34:32;;;;;;;;;;;;;;;21.61;45.01;101823.44;5075469;28;20436;-81
2022/05/15 04:36:57;;;;;;;;;;;;;;;21.61;45.26;101820.69;5075128;28;19927;-81
2022/05/15 04:39:22;;;;;;;;;;;;;;;21.62;44.87;101829.78;5074898;28;19995;-81
2022/05/15 04:41:48;;;;;;;;;;;;;;;21.62;45.05;101824.28;5075057;28;20319;-82
2022/05/15 04:44:13;;;;;;;;;;;;;;;21.61;45.23;101820.69;5075866;28;20046;-83
2022/05/15 04:46:38;;;;;;;;;;;;;;;21.61;45.19;101828.94;5076899;28;19994;-82
2022/05/15 04:49:04;;;;;;;;;;;;;;;21.62;45.20;101824.28;5075792;28;20332;-82
2022/05/15 04:51:29;;;;;;;;;;;;;;;21.62;44.99;101824.28;5075305;28;20306;-82
2022/05/15 04:53:54;;;;;;;;;;;;;;;21.62;45.19;101824.28;5074873;28;20370;-82
2022/05/15 04:56:20;;;;;;;;;;;;;;;21.61;44.85;101820.69;5074605;28;19969;-83
2022/05/15 04:58:46;;;;;;;;;;;;;;;21.62;44.90;101827.03;5058883;28;19947;-82
2022/05/15 05:01:11;;;;;;;;;;;;;;;21.62;44.93;101829.78;5076065;28;19922;-83
2022/05/15 05:03:37;;;;;;;;;;;;;;;21.61;44.91;101831.69;5073746;28;19917;-82
2022/05/15 05:06:02;;;;;;;;;;;;;;;21.61;44.92;101825.38;5075746;28;19925;-83
2022/05/15 05:08:27;;;;;;;;;;;;;;;21.61;44.80;101831.69;5075825;28;19931;-82
2022/05/15 05:10:52;;;;;;;;;;;;;;;21.61;45.11;101831.69;5074571;28;19920;-82
2022/05/15 05:13:18;;;;;;;;;;;;;;;21.61;45.01;101828.13;5074325;28;19970;-82
2022/05/15 05:15:43;;;;;;;;;;;;;;;21.61;45.23;101831.69;5074720;28;19951;-82
2022/05/15 05:18:08;;;;;;;;;;;;;;;21.61;44.81;101828.94;5057751;28;19947;-82
2022/05/15 05:20:33;;;;;;;;;;;;;;;21.61;44.89;101831.69;5057825;28;19970;-82
2022/05/15 05:22:59;;;;;;;;;;;;;;;21.62;45.26;101832.53;5057542;28;19958;-82
2022/05/15 05:25:24;;;;;;;;;;;;;;;21.63;45.23;101836.09;5074141;28;19970;-82
2022/05/15 05:27:49;;;;;;;;;;;;;;;21.61;44.94;101831.69;5075476;28;19977;-82
2022/05/15 05:30:16;;;;;;;;;;;;;;;21.62;44.99;101835.28;5075694;28;19931;-83
2022/05/15 05:32:42;;;;;;;;;;;;;;;21.62;44.81;101827.03;5074165;28;19924;-82
2022/05/15 05:35:07;;;;;;;;;;;;;;;21.61;44.94;101822.63;5075022;28;19980;-82
2022/05/15 05:37:33;;;;;;;;;;;;;;;21.60;45.09;101821.81;5074944;28;19916;-83
2022/05/15 05:39:58;;;;;;;;;;;;;;;21.61;45.06;101825.38;5057307;28;19920;-84
2022/05/15 05:42:23;;;;;;;;;;;;;;;21.61;44.81;101823.44;5075055;28;19954;-82
2022/05/15 05:44:49;;;;;;;;;;;;;;;21.61;45.19;101826.19;5073936;28;20008;-82
2022/05/15 05:47:14;;;;;;;;;;;;;;;21.62;45.19;101827.03;5057937;28;20294;-84
2022/05/15 05:49:39;;;;;;;;;;;;;;;21.63;44.81;101830.59;5074278;28;19923;-83
2022/05/15 05:52:05;;;;;;;;;;;;;;;21.61;45.27;101834.44;5057586;28;19920;-83
2022/05/15 05:54:30;;;;;;;;;;;;;;;21.62;44.80;101829.78;5073581;28;19970;-83
2022/05/15 05:56:58;;;;;;;;;;;;;;;21.63;44.85;101827.84;5057247;28;20389;-82
2022/05/15 05:59:23;;;;;;;;;;;;;;;21.62;45.11;101827.03;5057691;28;19982;-82
2022/05/15 06:01:48;;;;;;;;;;;;;;;21.63;44.88;101830.59;5073542;28;20378;-82
2022/05/15 06:06:57;;;;;;;;;;;;;;;21.62;44.98;101832.53;5073852;28;19981;-83
2022/05/15 06:09:22;;;;;;;;;;;;;;;21.62;44.92;101835.28;5074386;28;19917;-82
2022/05/15 06:11:48;;;;;;;;;;;;;;;21.61;44.82;101831.69;5073676;28;20019;-83
2022/05/15 06:14:13;;;;;;;;;;;;;;;21.61;45.13;101831.69;5074806;28;20272;-83
2022/05/15 06:16:38;;;;;;;;;;;;;;;21.63;44.85;101839.66;5073898;28;20426;-83
2022/05/15 06:19:04;;;;;;;;;;;;;;;21.63;44.76;101830.59;5073540;28;19943;-83
2022/05/15 06:21:29;;;;;;;;;;;;;;;21.63;44.78;101827.84;5073493;28;20424;-82
2022/05/15 06:23:54;;;;;;;;;;;;;;;21.63;44.82;101828.66;5056534;28;20305;-82
2022/05/15 06:26:19;;;;;;;;;;;;;;;21.63;45.18;101820.41;5056626;28;19920;-85
2022/05/15 06:28:45;;;;;;;;;;;;;;;21.63;44.87;101825.09;5056695;28;20041;-84
2022/05/15 06:31:10;;;;;;;;;;;;;;;21.62;44.84;101824.28;5073176;28;20306;-84
2022/05/15 06:33:35;;;;;;;;;;;;;;;21.63;44.90;101827.84;5073166;28;19985;-84
2022/05/15 06:36:00;;;;;;;;;;;;;;;21.63;44.80;101831.41;5073023;28;19949;-84
2022/05/15 06:38:26;;;;;;;;;;;;;;;21.64;44.92;101829.47;5055940;28;20364;-84
2022/05/15 06:40:51;;;;;;;;;;;;;;;21.63;44.76;101822.34;5072605;28;20037;-84
2022/05/15 06:43:17;;;;;;;;;;;;;;;21.64;45.09;101829.47;5072646;28;19947;-84
2022/05/15 06:45:44;;;;;;;;;;;;;;;21.64;45.22;101818.47;5073079;28;20476;-84
2022/05/15 06:48:09;;;;;;;;;;;;;;;21.65;45.36;101831.13;5072881;28;20428;-84
2022/05/15 06:50:35;;;;;;;;;;;;;;;21.64;44.99;101832.22;5073266;28;19935;-84
2022/05/15 06:53:01;;;;;;;;;;;;;;;21.64;44.90;101827.53;5073026;28;19924;-84
2022/05/15 06:55:26;;;;;;;;;;;;;;;21.64;45.23;101833.03;5072688;28;19918;-84
2022/05/15 06:57:52;;;;;;;;;;;;;;;21.65;45.30;101822.88;5074323;28;19917;-84
2022/05/15 07:00:19;;;;;;;;;;;;;;;21.65;45.03;101831.13;5074266;28;19942;-84
2022/05/15 07:02:46;;;;;;;;;;;;;;;21.64;44.94;101826.72;5072467;28;19978;-84
2022/05/15 07:05:12;;;;;;;;;;;;;;;21.65;45.22;101833.88;5072288;28;19916;-84
2022/05/15 07:07:38;;;;;;;;;;;;;;;21.65;44.86;101834.69;5073247;28;19917;-84
2022/05/15 07:10:04;;;;;;;;;;;;;;;21.65;45.00;101834.69;5073917;28;19931;-87
2022/05/15 07:12:29;;;;;;;;;;;;;;;21.65;44.97;101831.94;5072540;28;19920;-87
2022/05/15 07:14:54;;;;;;;;;;;;;;;21.66;44.98;101835.50;5072732;28;19928;-84
2022/05/15 07:17:20;;;;;;;;;;;;;;;21.66;44.96;101835.50;5072551;28;20026;-84
2022/05/15 07:19:45;;;;;;;;;;;;;;;21.67;44.96;101840.72;5073975;28;19920;-83
2022/05/15 07:22:10;;;;;;;;;;;;;;;21.68;44.88;101841.53;5056432;28;19950;-84
2022/05/15 07:24:37;;;;;;;;;;;;;;;21.67;45.25;101837.97;5055651;28;19989;-83
2022/05/15 07:27:03;;;;;;;;;;;;;;;21.68;45.40;101836.03;5075929;28;19943;-84
2022/05/15 07:29:28;;;;;;;;;;;;;;;21.69;45.26;101837.66;5075993;28;20014;-84
2022/05/15 07:31:54;;;;;;;;;;;;;;;21.69;45.11;101843.97;5059575;28;20381;-84
2022/05/15 07:34:21;;;;;;;;;;;;;;;21.69;45.02;101827.47;5076644;28;19921;-84
2022/05/15 07:36:50;;;;;;;;;;;;;;;21.70;45.15;101829.13;5076093;28;20405;-84
2022/05/15 07:39:15;;;;;;;;;;;;;;;21.70;45.13;101837.38;5076410;28;20021;-84
2022/05/15 07:41:40;;;;;;;;;;;;;;;21.71;45.26;101840.94;5076899;28;20045;-84
2022/05/15 07:44:06;;;;;;;;;;;;;;;21.71;45.33;101835.44;5059313;28;19924;-84
2022/05/15 07:46:31;;;;;;;;;;;;;;;21.70;45.46;101826.38;5059460;28;19924;-84
2022/05/15 07:48:57;;;;;;;;;;;;;;;21.71;45.27;101825.25;5076520;28;20410;-84
2022/05/15 07:51:22;;;;;;;;;;;;;;;21.71;45.23;101818.94;5059545;28;19935;-84
2022/05/15 07:53:48;;;;;;;;;;;;;;;21.71;45.54;101822.50;5059341;28;20077;-84
2022/05/15 07:56:13;;;;;;;;;;;;;;;21.72;45.26;101815.91;5059543;28;19961;-83
2022/05/15 07:58:39;;;;;;;;;;;;;;;21.72;45.62;101818.66;5059997;28;19935;-83
2022/05/15 08:01:05;;;;;;;;;;;;;;;21.73;45.30;101817.53;5076016;28;20045;-83
2022/05/15 08:03:38;;;;;;;;;;;;;;;21.73;45.63;101822.22;5076008;28;20390;-84
2022/05/15 08:08:48;;;;;;;;;;;;;;;21.74;45.62;101815.59;5077471;28;20307;-83
2022/05/15 08:11:13;;;;;;;;;;;;;;;21.75;45.43;101809.81;5077520;28;19921;-85
2022/05/15 08:13:38;;;;;;;;;;;;;;;21.75;45.43;101809.00;5075866;28;20326;-84
2022/05/15 08:16:04;;;;;;;;;;;;;;;21.76;45.50;101799.63;5075247;28;19927;-84
2022/05/15 08:24:00;;;;;;;;;;;;;;;21.76;45.50;101800.44;5076811;28;20477;-85
2022/05/15 08:26:26;;;;;;;;;;;;;;;21.77;45.94;101795.75;5075302;28;19921;-84
2022/05/15 08:28:51;;;;;;;;;;;;;;;21.78;45.62;101791.91;5075460;28;19936;-87
2022/05/15 08:31:20;;;;;;;;;;;;;;;21.79;45.75;101788.84;5075447;28;19967;-82
2022/05/15 08:33:45;;;;;;;;;;;;;;;21.79;45.82;101783.34;5075303;28;19957;-78
2022/05/15 08:36:11;;;;;;;;;;;;;;;21.81;45.92;101781.13;5076096;28;20376;-76
2022/05/15 08:38:37;;;;;;;;;;;;;;;21.83;46.10;101781.66;5075484;28;20002;-77
2022/05/15 08:41:21;;;;;;;;;;;;;;;21.86;46.26;101776.69;5076237;28;20302;-78
2022/05/15 08:43:49;;;;;;;;;;;;;;;21.87;46.41;101776.38;5076484;28;19928;-77
2022/05/15 08:46:20;;;;;;;;;;;;;;;21.89;46.25;101771.41;5076389;28;20428;-77
2022/05/15 08:48:45;;;;;;;;;;;;;;;21.92;46.61;101770.00;5076552;28;19924;-77
2022/05/15 08:51:12;;;;;;;;;;;;;;;21.93;46.49;101772.47;5076375;28;19928;-78
2022/05/15 08:53:39;;;;;;;;;;;;;;;21.95;46.55;101770.25;5076769;28;20499;-79
2022/05/15 08:56:09;;;;;;;;;;;;;;;21.97;46.55;101759.78;5074929;28;19998;-78
2022/05/15 08:58:39;;;;;;;;;;;;;;;22.00;46.60;101772.13;5076076;28;19920;-78
2022/05/15 09:01:06;;;;;;;;;;;;;;;22.02;46.71;101761.63;5076179;28;20397;-78
2022/05/15 09:03:35;;;;;;;;;;;;;;;22.03;47.07;101774.28;5076069;28;20025;-78
2022/05/15 09:06:18;;;;;;;;;;;;;;;22.05;46.89;101769.31;5076291;28;19978;-77
2022/05/15 09:08:44;;;;;;;;;;;;;;;22.07;47.02;101763.50;5076127;28;19946;-77
2022/05/15 09:11:09;;;;;;;;;;;;;;;22.06;47.09;101759.94;5075445;28;19916;-81
2022/05/15 09:13:37;;;;;;;;;;;;;;;22.07;46.76;101761.56;5074408;28;19942;-81
2022/05/15 09:16:04;;;;;;;;;;;;;;;22.09;47.01;101755.75;5074472;28;19952;-81
2022/05/15 09:18:30;;;;;;;;;;;;;;;22.10;47.00;101765.63;5057737;28;20035;-84
2022/05/15 09:21:15;;;;;;;;;;;;;;;22.09;46.97;101761.28;5074314;28;19932;-83
2022/05/15 09:23:42;;;;;;;;;;;;;;;22.12;46.95;101760.66;5075360;28;20367;-83
2022/05/15 09:26:12;;;;;;;;;;;;;;;22.11;46.55;101762.59;5076150;28;19920;-82
2022/05/15 09:29:05;;;;;;;;;;;;;;;22.12;46.50;101752.41;5075345;28;20413;-82
2022/05/15 09:31:38;;;;;;;;;;;;;;;22.13;46.52;101754.06;5071509;28;20365;-82
2022/05/15 09:34:27;;;;;;;;;;;;;;;22.14;46.50;101744.69;5076006;28;19939;-82
2022/05/15 09:38:27;;;;;;;;;;;;;;;22.14;46.81;101745.50;5069639;28;20421;-76
2022/05/15 09:39:46;;;;;;;;;;;;;;;22.14;46.34;101747.44;5075202;28;19953;-76
2022/05/15 09:44:58;;;;;;;;;;;;;;;22.15;46.27;101757.31;5075752;28;19927;-77
2022/05/15 09:47:31;;;;;;;;;;;;;;;22.15;46.42;101754.56;5075111;28;19920;-76
2022/05/15 09:49:56;;;;;;;;;;;;;;;22.17;46.37;101752.34;5074707;28;19995;-77
2022/05/15 09:52:21;;;;;;;;;;;;;;;22.17;46.24;101750.41;5073729;28;20051;-77
2022/05/15 09:54:49;;;;;;;;;;;;;;;22.18;46.56;101751.25;5075519;28;19939;-77
2022/05/15 09:57:14;;;;;;;;;;;;;;;22.18;46.23;101756.75;5075194;28;19927;-77
2022/05/15 09:59:39;;;;;;;;;;;;;;;22.18;46.58;101745.75;5074876;28;19975;-77
2022/05/15 10:02:05;;;;;;;;;;;;;;;22.19;46.31;101741.88;5074758;28;20330;-77
2022/05/15 10:04:37;;;;;;;;;;;;;;;22.19;46.52;101745.47;5074779;28;20455;-77
2022/05/15 10:07:03;;;;;;;;;;;;;;;22.19;46.18;101744.63;5075287;28;19992;-77
2022/05/15 10:09:40;;;;;;;;;;;;;;;22.20;46.56;101735.25;5074754;28;19995;-77
2022/05/15 10:12:15;;;;;;;;;;;;;;;22.20;46.58;101736.09;5075059;28;19945;-77
2022/05/15 10:14:50;;;;;;;;;;;;;;;22.21;46.21;101728.66;5074305;28;20011;-77
2022/05/15 10:17:16;;;;;;;;;;;;;;;22.22;46.16;101727.53;5074521;28;19931;-77
2022/05/15 10:20:00;;;;;;;;;;;;;;;22.21;45.97;101721.22;5073248;28;19950;-77
2022/05/15 10:22:48;;;;;;;;;;;;;;;22.23;46.10;101729.19;5074658;28;20000;-77
2022/05/15 10:25:18;;;;;;;;;;;;;;;22.23;46.12;101729.19;5074125;28;19927;-77
2022/05/15 10:27:48;;;;;;;;;;;;;;;22.24;46.54;101725.31;5074596;28;20378;-77
2022/05/15 10:30:16;;;;;;;;;;;;;;;22.24;46.44;101714.28;5074642;28;19948;-77
2022/05/15 10:32:44;;;;;;;;;;;;;;;22.24;46.12;101711.53;5074223;28;19916;-77
2022/05/15 10:35:11;;;;;;;;;;;;;;;22.25;46.11;101707.66;5074826;28;19969;-77
2022/05/15 10:37:49;;;;;;;;;;;;;;;22.25;45.98;101707.66;5073045;28;19923;-76
2022/05/15 10:40:14;;;;;;;;;;;;;;;22.26;46.44;101709.31;5072952;28;19930;-77
2022/05/15 10:42:58;;;;;;;;;;;;;;;22.28;46.15;101709.03;5074401;28;19951;-77
2022/05/15 10:45:35;;;;;;;;;;;;;;;22.27;46.36;101701.88;5074155;28;19963;-77
2022/05/15 10:48:15;;;;;;;;;;;;;;;22.27;46.04;101699.94;5074044;28;20333;-77
2022/05/15 10:50:40;;;;;;;;;;;;;;;22.28;46.29;101712.59;5074158;28;19956;-77
2022/05/15 10:59:34;;;;;;;;;;;;;;;22.30;46.15;101704.03;5074272;28;19923;-77
2022/05/15 11:02:05;;;;;;;;;;;;;;;22.30;46.03;101702.13;5073489;28;20015;-74
2022/05/15 11:04:33;;;;;;;;;;;;;;;22.31;46.42;101692.72;5072785;28;19937;-75
2022/05/15 11:07:04;;;;;;;;;;;;;;;22.31;46.01;101692.72;5073790;28;19933;-74
2022/05/15 11:09:44;;;;;;;;;;;;;;;22.33;46.09;101689.69;5073626;28;19916;-74
2022/05/15 11:12:12;;;;;;;;;;;;;;;22.32;45.96;101680.59;5073837;28;19970;-74
2022/05/15 11:14:50;;;;;;;;;;;;;;;22.32;46.13;101679.78;5072580;28;19943;-77
2022/05/15 11:17:27;;;;;;;;;;;;;;;22.33;46.03;101676.75;5074484;28;20413;-77
2022/05/15 11:19:54;;;;;;;;;;;;;;;22.34;46.01;101677.56;5074025;28;19966;-77
2022/05/15 11:22:19;;;;;;;;;;;;;;;22.35;45.95;101676.41;5072366;28;20470;-77
2022/05/15 11:24:55;;;;;;;;;;;;;;;22.35;46.27;101662.66;5073545;28;19989;-78
2022/05/15 11:27:39;;;;;;;;;;;;;;;22.35;46.11;101663.50;5074258;28;20337;-77
2022/05/15 11:30:31;;;;;;;;;;;;;;;22.35;46.11;101646.97;5073582;28;20096;-76
2022/05/15 11:32:57;;;;;;;;;;;;;;;22.37;46.33;101652.16;5071987;28;19916;-77
2022/05/15 11:35:22;;;;;;;;;;;;;;;22.36;46.02;101651.34;5073892;28;20387;-77
2022/05/15 11:37:56;;;;;;;;;;;;;;;22.37;46.14;101652.16;5073483;28;19962;-77
2022/05/15 11:40:33;;;;;;;;;;;;;;;22.38;46.00;101648.31;5073259;28;19924;-77
2022/05/15 11:42:59;;;;;;;;;;;;;;;22.39;46.33;101641.69;5073157;28;20396;-75
2022/05/15 11:45:28;;;;;;;;;;;;;;;22.38;46.37;101634.56;5072615;28;19939;-76
2022/05/15 11:47:57;;;;;;;;;;;;;;;22.39;46.01;101634.22;5073914;28;19927;-77
2022/05/15 11:50:37;;;;;;;;;;;;;;;22.40;46.05;101630.38;5073212;28;19927;-77
2022/05/15 11:53:06;;;;;;;;;;;;;;;22.40;46.39;101632.28;5073090;28;19985;-77
2022/05/15 11:55:48;;;;;;;;;;;;;;;22.41;46.36;101625.69;5074014;28;19939;-77
2022/05/15 11:58:13;;;;;;;;;;;;;;;22.41;46.36;101614.69;5073388;28;20386;-77
2022/05/15 12:00:39;;;;;;;;;;;;;;;22.42;46.07;101621.81;5072116;28;19923;-77
2022/05/15 12:03:24;;;;;;;;;;;;;;;22.42;46.29;101619.88;5073249;28;19946;-77
2022/05/15 12:06:01;;;;;;;;;;;;;;;22.43;46.30;101620.69;5072129;28;20024;-77
2022/05/15 12:08:29;;;;;;;;;;;;;;;22.43;45.98;101621.50;5073838;28;19964;-76
2022/05/15 12:10:59;;;;;;;;;;;;;;;22.43;46.40;101616.00;5073406;28;19933;-76
2022/05/15 12:13:32;;;;;;;;;;;;;;;22.45;46.07;101621.19;5076835;28;19934;-76
2022/05/15 12:16:17;;;;;;;;;;;;;;;22.45;46.03;101615.69;5076845;28;20102;-76
2022/05/15 12:18:45;;;;;;;;;;;;;;;22.45;46.06;101612.94;5076667;28;19917;-76
2022/05/15 12:21:14;;;;;;;;;;;;;;;22.46;46.22;101611.84;5076660;28;19945;-76
2022/05/15 12:26:40;;;;;;;;;;;;;;;22.47;46.39;101610.69;5076742;28;19924;-76
2022/05/15 12:29:16;;;;;;;;;;;;;;;22.47;46.05;101599.69;5076602;28;19927;-76
2022/05/15 12:31:45;;;;;;;;;;;;;;;22.48;46.02;101595.84;5075579;28;20298;-76
2022/05/15 12:34:11;;;;;;;;;;;;;;;22.50;46.06;101588.06;5076518;28;19958;-76
2022/05/15 12:36:38;;;;;;;;;;;;;;;22.51;46.00;101592.47;5076584;28;19943;-76
2022/05/15 12:39:04;;;;;;;;;;;;;;;22.51;46.36;101589.72;5076628;28;19920;-76
2022/05/15 12:41:32;;;;;;;;;;;;;;;22.52;46.46;101587.78;5076350;28;20481;-76
2022/05/15 12:44:00;;;;;;;;;;;;;;;22.51;46.35;101575.94;5074803;28;19958;-76
2022/05/15 12:46:25;;;;;;;;;;;;;;;22.53;46.24;101578.38;5076327;28;20447;-76
2022/05/15 12:48:51;;;;;;;;;;;;;;;22.53;46.09;101581.13;5076250;28;20000;-77
2022/05/15 12:51:23;;;;;;;;;;;;;;;22.54;46.08;101574.53;5076236;28;20271;-76
2022/05/15 12:53:48;;;;;;;;;;;;;;;22.54;46.52;101571.78;5077093;28;19916;-76
2022/05/15 12:56:18;;;;;;;;;;;;;;;22.55;46.39;101574.22;5076397;28;19949;-76
2022/05/15 12:58:48;;;;;;;;;;;;;;;22.55;46.11;101576.16;5076404;28;19917;-76
2022/05/15 13:01:14;;;;;;;;;;;;;;;22.56;46.12;101583.31;5075891;28;19958;-76
2022/05/15 13:03:41;;;;;;;;;;;;;;;22.56;46.52;101580.56;5076025;28;20364;-77